sensor_id;sensor_type;location;lat;lon;timestamp;temperature;humidity
28087;DHT22;15392;48.912;8.380;2022-08-19T00:01:34;26.80;45.60
28087;DHT22;15392;48.912;8.380;2022-08-19T00:04:04;26.80;45.80
28087;DHT22;15392;48.912;8.380;2022-08-19T00:06:33;26.80;46.00
28087;DHT22;15392;48.912;8.380;2022-08-19T00:09:03;26.80;46.10
28087;DHT22;15392;48.912;8.380;2022-08-19T00:11:30;26.80;46.80
28087;DHT22;15392;48.912;8.380;2022-08-19T00:13:56;26.70;46.10
28087;DHT22;15392;48.912;8.380;2022-08-19T00:16:24;26.80;46.20
28087;DHT22;15392;48.912;8.380;2022-08-19T00:18:50;26.70;46.40
28087;DHT22;15392;48.912;8.380;2022-08-19T00:21:16;26.70;46.30
28087;DHT22;15392;48.912;8.380;2022-08-19T00:23:42;26.70;46.50
28087;DHT22;15392;48.912;8.380;2022-08-19T00:26:09;26.70;46.50
28087;DHT22;15392;48.912;8.380;2022-08-19T00:28:36;26.70;46.70
28087;DHT22;15392;48.912;8.380;2022-08-19T00:31:04;26.70;46.70
28087;DHT22;15392;48.912;8.380;2022-08-19T00:33:31;26.70;46.80
28087;DHT22;15392;48.912;8.380;2022-08-19T00:36:01;26.70;46.90
28087;DHT22;15392;48.912;8.380;2022-08-19T00:38:29;26.70;46.90
28087;DHT22;15392;48.912;8.380;2022-08-19T00:40:55;26.60;46.90
28087;DHT22;15392;48.912;8.380;2022-08-19T00:43:23;26.70;47.10
28087;DHT22;15392;48.912;8.380;2022-08-19T00:45:51;26.70;47.20
28087;DHT22;15392;48.912;8.380;2022-08-19T00:48:18;26.60;47.10
28087;DHT22;15392;48.912;8.380;2022-08-19T00:50:46;26.60;47.30
28087;DHT22;15392;48.912;8.380;2022-08-19T00:53:16;26.60;47.30
28087;DHT22;15392;48.912;8.380;2022-08-19T00:55:46;26.60;47.30
28087;DHT22;15392;48.912;8.380;2022-08-19T00:58:17;26.60;47.30
28087;DHT22;15392;48.912;8.380;2022-08-19T01:00:46;26.60;47.50
28087;DHT22;15392;48.912;8.380;2022-08-19T01:03:17;26.60;47.50
28087;DHT22;15392;48.912;8.380;2022-08-19T01:05:45;26.60;47.50
28087;DHT22;15392;48.912;8.380;2022-08-19T01:08:14;26.60;47.50
28087;DHT22;15392;48.912;8.380;2022-08-19T01:10:47;26.60;47.50
28087;DHT22;15392;48.912;8.380;2022-08-19T01:13:16;26.60;48.00
28087;DHT22;15392;48.912;8.380;2022-08-19T01:16:11;26.50;47.50
28087;DHT22;15392;48.912;8.380;2022-08-19T01:18:40;26.60;48.80
28087;DHT22;15392;48.912;8.380;2022-08-19T01:21:18;26.50;47.50
28087;DHT22;15392;48.912;8.380;2022-08-19T01:23:50;26.50;48.20
28087;DHT22;15392;48.912;8.380;2022-08-19T01:26:19;26.60;47.50
28087;DHT22;15392;48.912;8.380;2022-08-19T01:28:49;26.60;47.70
28087;DHT22;15392;48.912;8.380;2022-08-19T01:31:20;26.60;47.60
28087;DHT22;15392;48.912;8.380;2022-08-19T01:33:52;26.60;47.60
28087;DHT22;15392;48.912;8.380;2022-08-19T01:36:24;26.60;47.50
28087;DHT22;15392;48.912;8.380;2022-08-19T01:38:53;26.60;48.60
28087;DHT22;15392;48.912;8.380;2022-08-19T01:41:19;26.60;47.50
28087;DHT22;15392;48.912;8.380;2022-08-19T01:43:45;26.60;47.60
28087;DHT22;15392;48.912;8.380;2022-08-19T01:46:11;26.60;47.50
28087;DHT22;15392;48.912;8.380;2022-08-19T01:48:39;26.60;47.50
28087;DHT22;15392;48.912;8.380;2022-08-19T01:51:08;26.60;47.60
28087;DHT22;15392;48.912;8.380;2022-08-19T01:53:35;26.60;47.50
28087;DHT22;15392;48.912;8.380;2022-08-19T01:56:02;26.60;47.70
28087;DHT22;15392;48.912;8.380;2022-08-19T01:58:36;26.60;47.70
28087;DHT22;15392;48.912;8.380;2022-08-19T02:01:05;26.60;48.30
28087;DHT22;15392;48.912;8.380;2022-08-19T02:03:31;26.50;47.80
28087;DHT22;15392;48.912;8.380;2022-08-19T02:06:02;26.50;47.70
28087;DHT22;15392;48.912;8.380;2022-08-19T02:08:30;26.50;48.20
28087;DHT22;15392;48.912;8.380;2022-08-19T02:10:57;26.50;47.90
28087;DHT22;15392;48.912;8.380;2022-08-19T02:13:23;26.40;47.90
28087;DHT22;15392;48.912;8.380;2022-08-19T02:15:49;26.50;48.00
28087;DHT22;15392;48.912;8.380;2022-08-19T02:18:16;26.40;47.90
28087;DHT22;15392;48.912;8.380;2022-08-19T02:20:42;26.40;47.90
28087;DHT22;15392;48.912;8.380;2022-08-19T02:23:11;26.40;47.90
28087;DHT22;15392;48.912;8.380;2022-08-19T02:25:38;26.40;48.10
28087;DHT22;15392;48.912;8.380;2022-08-19T02:28:04;26.40;48.10
28087;DHT22;15392;48.912;8.380;2022-08-19T02:30:31;26.40;48.10
28087;DHT22;15392;48.912;8.380;2022-08-19T02:32:56;26.40;48.20
28087;DHT22;15392;48.912;8.380;2022-08-19T02:35:23;26.30;48.10
28087;DHT22;15392;48.912;8.380;2022-08-19T02:37:49;26.30;48.20
28087;DHT22;15392;48.912;8.380;2022-08-19T02:40:34;26.30;48.20
28087;DHT22;15392;48.912;8.380;2022-08-19T02:43:01;26.30;48.20
28087;DHT22;15392;48.912;8.380;2022-08-19T02:45:32;26.30;48.40
28087;DHT22;15392;48.912;8.380;2022-08-19T02:47:59;26.30;48.70
28087;DHT22;15392;48.912;8.380;2022-08-19T02:50:25;26.30;48.30
28087;DHT22;15392;48.912;8.380;2022-08-19T02:52:51;26.30;48.30
28087;DHT22;15392;48.912;8.380;2022-08-19T02:55:17;26.30;48.40
28087;DHT22;15392;48.912;8.380;2022-08-19T02:57:43;26.30;48.40
28087;DHT22;15392;48.912;8.380;2022-08-19T03:00:09;26.30;48.40
28087;DHT22;15392;48.912;8.380;2022-08-19T03:02:38;26.30;48.50
28087;DHT22;15392;48.912;8.380;2022-08-19T03:05:08;26.30;48.50
28087;DHT22;15392;48.912;8.380;2022-08-19T03:07:35;26.30;48.90
28087;DHT22;15392;48.912;8.380;2022-08-19T03:10:02;26.20;48.70
28087;DHT22;15392;48.912;8.380;2022-08-19T03:12:28;26.20;48.60
28087;DHT22;15392;48.912;8.380;2022-08-19T03:14:54;26.20;48.70
28087;DHT22;15392;48.912;8.380;2022-08-19T03:17:20;26.20;48.90
28087;DHT22;15392;48.912;8.380;2022-08-19T03:19:45;26.20;49.30
28087;DHT22;15392;48.912;8.380;2022-08-19T03:22:11;26.20;48.80
28087;DHT22;15392;48.912;8.380;2022-08-19T03:24:38;26.20;49.50
28087;DHT22;15392;48.912;8.380;2022-08-19T03:27:03;26.20;48.90
28087;DHT22;15392;48.912;8.380;2022-08-19T03:29:31;26.20;48.90
28087;DHT22;15392;48.912;8.380;2022-08-19T03:32:03;26.20;49.20
28087;DHT22;15392;48.912;8.380;2022-08-19T03:34:32;26.20;49.90
28087;DHT22;15392;48.912;8.380;2022-08-19T03:37:04;26.10;49.40
28087;DHT22;15392;48.912;8.380;2022-08-19T03:39:38;26.20;49.70
28087;DHT22;15392;48.912;8.380;2022-08-19T03:42:05;26.10;49.30
28087;DHT22;15392;48.912;8.380;2022-08-19T03:44:32;26.10;49.40
28087;DHT22;15392;48.912;8.380;2022-08-19T03:46:59;26.10;49.40
28087;DHT22;15392;48.912;8.380;2022-08-19T03:49:28;26.10;49.40
28087;DHT22;15392;48.912;8.380;2022-08-19T03:51:57;26.10;49.60
28087;DHT22;15392;48.912;8.380;2022-08-19T03:54:25;26.10;49.30
28087;DHT22;15392;48.912;8.380;2022-08-19T03:56:53;26.10;49.50
28087;DHT22;15392;48.912;8.380;2022-08-19T03:59:27;26.10;49.60
28087;DHT22;15392;48.912;8.380;2022-08-19T04:01:57;26.10;50.10
28087;DHT22;15392;48.912;8.380;2022-08-19T04:04:25;26.10;49.50
28087;DHT22;15392;48.912;8.380;2022-08-19T04:06:51;26.10;49.40
28087;DHT22;15392;48.912;8.380;2022-08-19T04:09:19;26.10;49.40
28087;DHT22;15392;48.912;8.380;2022-08-19T04:11:50;26.10;49.60
28087;DHT22;15392;48.912;8.380;2022-08-19T04:14:23;26.10;50.70
28087;DHT22;15392;48.912;8.380;2022-08-19T04:16:50;26.10;49.60
28087;DHT22;15392;48.912;8.380;2022-08-19T04:19:18;26.10;50.60
28087;DHT22;15392;48.912;8.380;2022-08-19T04:21:49;26.00;49.30
28087;DHT22;15392;48.912;8.380;2022-08-19T04:24:17;26.00;49.80
28087;DHT22;15392;48.912;8.380;2022-08-19T04:26:44;26.00;49.30
28087;DHT22;15392;48.912;8.380;2022-08-19T04:29:17;26.00;49.60
28087;DHT22;15392;48.912;8.380;2022-08-19T04:31:47;25.90;50.00
28087;DHT22;15392;48.912;8.380;2022-08-19T04:34:16;25.90;49.70
28087;DHT22;15392;48.912;8.380;2022-08-19T04:36:44;25.90;49.70
28087;DHT22;15392;48.912;8.380;2022-08-19T04:39:18;25.90;49.70
28087;DHT22;15392;48.912;8.380;2022-08-19T04:42:14;25.90;50.60
28087;DHT22;15392;48.912;8.380;2022-08-19T04:44:59;25.90;49.70
28087;DHT22;15392;48.912;8.380;2022-08-19T04:47:26;25.90;49.70
28087;DHT22;15392;48.912;8.380;2022-08-19T04:49:51;25.90;49.70
28087;DHT22;15392;48.912;8.380;2022-08-19T04:52:17;25.90;50.40
28087;DHT22;15392;48.912;8.380;2022-08-19T04:54:43;25.90;49.90
28087;DHT22;15392;48.912;8.380;2022-08-19T04:57:09;25.90;50.00
28087;DHT22;15392;48.912;8.380;2022-08-19T04:59:37;25.90;50.00
28087;DHT22;15392;48.912;8.380;2022-08-19T05:02:04;25.90;50.00
28087;DHT22;15392;48.912;8.380;2022-08-19T05:04:30;25.80;50.00
28087;DHT22;15392;48.912;8.380;2022-08-19T05:06:57;25.90;50.10
28087;DHT22;15392;48.912;8.380;2022-08-19T05:09:23;25.80;50.00
28087;DHT22;15392;48.912;8.380;2022-08-19T05:11:48;25.90;50.10
28087;DHT22;15392;48.912;8.380;2022-08-19T05:14:16;25.80;50.00
28087;DHT22;15392;48.912;8.380;2022-08-19T05:16:42;25.90;50.20
28087;DHT22;15392;48.912;8.380;2022-08-19T05:19:07;25.80;50.20
28087;DHT22;15392;48.912;8.380;2022-08-19T05:21:52;25.80;50.20
28087;DHT22;15392;48.912;8.380;2022-08-19T05:24:36;25.80;50.00
28087;DHT22;15392;48.912;8.380;2022-08-19T05:27:02;25.80;50.10
28087;DHT22;15392;48.912;8.380;2022-08-19T05:29:32;25.80;50.80
28087;DHT22;15392;48.912;8.380;2022-08-19T05:32:01;25.80;50.10
28087;DHT22;15392;48.912;8.380;2022-08-19T05:34:30;25.80;50.30
28087;DHT22;15392;48.912;8.380;2022-08-19T05:36:59;25.80;50.20
28087;DHT22;15392;48.912;8.380;2022-08-19T05:39:27;25.80;50.20
28087;DHT22;15392;48.912;8.380;2022-08-19T05:42:00;25.80;50.20
28087;DHT22;15392;48.912;8.380;2022-08-19T05:44:31;25.80;50.50
28087;DHT22;15392;48.912;8.380;2022-08-19T05:46:59;25.80;50.20
28087;DHT22;15392;48.912;8.380;2022-08-19T05:49:28;25.80;51.10
28087;DHT22;15392;48.912;8.380;2022-08-19T05:51:55;25.80;49.70
28087;DHT22;15392;48.912;8.380;2022-08-19T05:54:22;25.80;50.10
28087;DHT22;15392;48.912;8.380;2022-08-19T05:56:50;25.90;50.00
28087;DHT22;15392;48.912;8.380;2022-08-19T05:59:17;25.80;50.10
28087;DHT22;15392;48.912;8.380;2022-08-19T06:01:45;25.80;50.00
28087;DHT22;15392;48.912;8.380;2022-08-19T06:04:16;25.90;50.20
28087;DHT22;15392;48.912;8.380;2022-08-19T06:06:51;25.90;50.20
28087;DHT22;15392;48.912;8.380;2022-08-19T06:09:18;25.90;50.60
28087;DHT22;15392;48.912;8.380;2022-08-19T06:11:50;25.90;50.10
28087;DHT22;15392;48.912;8.380;2022-08-19T06:14:23;25.90;50.10
28087;DHT22;15392;48.912;8.380;2022-08-19T06:16:52;25.90;50.10
28087;DHT22;15392;48.912;8.380;2022-08-19T06:19:20;25.90;50.00
28087;DHT22;15392;48.912;8.380;2022-08-19T06:21:49;25.90;50.10
28087;DHT22;15392;48.912;8.380;2022-08-19T06:24:19;25.90;50.00
28087;DHT22;15392;48.912;8.380;2022-08-19T06:26:49;25.90;50.00
28087;DHT22;15392;48.912;8.380;2022-08-19T06:29:55;25.90;49.90
28087;DHT22;15392;48.912;8.380;2022-08-19T06:32:58;26.00;49.90
28087;DHT22;15392;48.912;8.380;2022-08-19T06:36:05;26.00;49.80
28087;DHT22;15392;48.912;8.380;2022-08-19T06:39:20;26.00;49.70
28087;DHT22;15392;48.912;8.380;2022-08-19T06:42:30;26.00;49.70
28087;DHT22;15392;48.912;8.380;2022-08-19T06:45:37;26.00;49.70
28087;DHT22;15392;48.912;8.380;2022-08-19T06:48:44;26.00;49.70
28087;DHT22;15392;48.912;8.380;2022-08-19T06:51:51;26.00;49.60
28087;DHT22;15392;48.912;8.380;2022-08-19T06:54:57;26.00;49.60
28087;DHT22;15392;48.912;8.380;2022-08-19T06:58:05;26.00;49.80
28087;DHT22;15392;48.912;8.380;2022-08-19T07:01:11;26.00;49.90
28087;DHT22;15392;48.912;8.380;2022-08-19T07:04:21;26.00;50.00
28087;DHT22;15392;48.912;8.380;2022-08-19T07:07:29;26.00;50.00
28087;DHT22;15392;48.912;8.380;2022-08-19T07:10:37;26.00;49.80
28087;DHT22;15392;48.912;8.380;2022-08-19T07:13:44;26.00;50.00
28087;DHT22;15392;48.912;8.380;2022-08-19T07:16:55;26.10;50.10
28087;DHT22;15392;48.912;8.380;2022-08-19T07:20:03;26.10;49.90
28087;DHT22;15392;48.912;8.380;2022-08-19T07:23:10;26.10;49.80
28087;DHT22;15392;48.912;8.380;2022-08-19T07:26:31;26.20;49.70
28087;DHT22;15392;48.912;8.380;2022-08-19T07:29:39;26.20;50.90
28087;DHT22;15392;48.912;8.380;2022-08-19T07:32:46;26.20;49.50
28087;DHT22;15392;48.912;8.380;2022-08-19T07:35:52;26.20;49.50
28087;DHT22;15392;48.912;8.380;2022-08-19T07:39:02;26.20;49.60
28087;DHT22;15392;48.912;8.380;2022-08-19T07:42:13;26.20;49.50
28087;DHT22;15392;48.912;8.380;2022-08-19T07:45:20;26.30;49.20
28087;DHT22;15392;48.912;8.380;2022-08-19T07:48:27;26.30;49.00
28087;DHT22;15392;48.912;8.380;2022-08-19T07:51:34;26.40;49.80
28087;DHT22;15392;48.912;8.380;2022-08-19T07:54:40;26.40;49.00
28087;DHT22;15392;48.912;8.380;2022-08-19T07:57:47;26.50;49.00
28087;DHT22;15392;48.912;8.380;2022-08-19T08:00:56;26.50;48.90
28087;DHT22;15392;48.912;8.380;2022-08-19T08:04:08;26.50;48.70
28087;DHT22;15392;48.912;8.380;2022-08-19T08:07:33;26.60;48.60
28087;DHT22;15392;48.912;8.380;2022-08-19T08:10:59;26.60;48.50
28087;DHT22;15392;48.912;8.380;2022-08-19T08:14:06;26.60;48.40
28087;DHT22;15392;48.912;8.380;2022-08-19T08:17:14;26.60;48.40
28087;DHT22;15392;48.912;8.380;2022-08-19T08:20:21;26.70;48.40
28087;DHT22;15392;48.912;8.380;2022-08-19T08:23:28;26.70;48.40
28087;DHT22;15392;48.912;8.380;2022-08-19T08:26:36;26.80;48.30
28087;DHT22;15392;48.912;8.380;2022-08-19T08:29:42;26.80;48.20
28087;DHT22;15392;48.912;8.380;2022-08-19T08:32:51;26.90;48.30
28087;DHT22;15392;48.912;8.380;2022-08-19T08:35:57;27.00;48.10
28087;DHT22;15392;48.912;8.380;2022-08-19T08:39:04;27.00;47.80
28087;DHT22;15392;48.912;8.380;2022-08-19T08:42:25;27.10;47.90
28087;DHT22;15392;48.912;8.380;2022-08-19T08:45:38;27.20;48.10
28087;DHT22;15392;48.912;8.380;2022-08-19T08:48:56;27.20;47.50
28087;DHT22;15392;48.912;8.380;2022-08-19T08:52:31;27.30;47.30
28087;DHT22;15392;48.912;8.380;2022-08-19T08:55:42;27.40;47.10
28087;DHT22;15392;48.912;8.380;2022-08-19T08:59:18;27.40;46.90
28087;DHT22;15392;48.912;8.380;2022-08-19T09:02:28;27.50;47.00
28087;DHT22;15392;48.912;8.380;2022-08-19T09:06:02;27.60;46.70
28087;DHT22;15392;48.912;8.380;2022-08-19T09:09:46;27.70;46.80
28087;DHT22;15392;48.912;8.380;2022-08-19T09:16:20;27.80;46.50
28087;DHT22;15392;48.912;8.380;2022-08-19T09:19:32;27.90;46.30
28087;DHT22;15392;48.912;8.380;2022-08-19T09:22:40;27.90;46.20
28087;DHT22;15392;48.912;8.380;2022-08-19T09:25:49;28.00;46.10
28087;DHT22;15392;48.912;8.380;2022-08-19T09:28:57;28.00;46.00
28087;DHT22;15392;48.912;8.380;2022-08-19T09:32:04;28.10;46.00
28087;DHT22;15392;48.912;8.380;2022-08-19T09:35:12;28.10;45.80
28087;DHT22;15392;48.912;8.380;2022-08-19T09:38:18;28.20;45.80
28087;DHT22;15392;48.912;8.380;2022-08-19T09:41:25;28.20;45.70
28087;DHT22;15392;48.912;8.380;2022-08-19T09:44:31;28.30;46.20
28087;DHT22;15392;48.912;8.380;2022-08-19T09:47:39;28.40;45.60
28087;DHT22;15392;48.912;8.380;2022-08-19T09:50:45;28.40;45.40
28087;DHT22;15392;48.912;8.380;2022-08-19T09:53:52;28.40;45.40
28087;DHT22;15392;48.912;8.380;2022-08-19T09:57:02;28.50;45.30
28087;DHT22;15392;48.912;8.380;2022-08-19T10:00:09;28.50;45.30
28087;DHT22;15392;48.912;8.380;2022-08-19T10:03:16;28.60;45.20
28087;DHT22;15392;48.912;8.380;2022-08-19T10:06:24;28.60;45.10
28087;DHT22;15392;48.912;8.380;2022-08-19T10:09:35;28.60;45.00
28087;DHT22;15392;48.912;8.380;2022-08-19T10:12:41;28.70;45.10
28087;DHT22;15392;48.912;8.380;2022-08-19T10:15:55;28.70;44.90
28087;DHT22;15392;48.912;8.380;2022-08-19T10:19:03;28.70;44.90
28087;DHT22;15392;48.912;8.380;2022-08-19T10:22:09;28.80;45.10
28087;DHT22;15392;48.912;8.380;2022-08-19T10:25:20;28.80;44.60
28087;DHT22;15392;48.912;8.380;2022-08-19T10:28:26;28.80;44.50
28087;DHT22;15392;48.912;8.380;2022-08-19T10:31:33;28.80;44.40
28087;DHT22;15392;48.912;8.380;2022-08-19T10:34:40;28.90;44.30
28087;DHT22;15392;48.912;8.380;2022-08-19T10:37:47;28.90;44.30
28087;DHT22;15392;48.912;8.380;2022-08-19T10:40:53;29.00;44.30
28087;DHT22;15392;48.912;8.380;2022-08-19T10:44:04;29.00;44.20
28087;DHT22;15392;48.912;8.380;2022-08-19T10:47:12;29.10;44.10
28087;DHT22;15392;48.912;8.380;2022-08-19T10:50:19;29.10;44.20
28087;DHT22;15392;48.912;8.380;2022-08-19T10:53:43;29.20;44.10
28087;DHT22;15392;48.912;8.380;2022-08-19T10:56:50;29.20;43.90
28087;DHT22;15392;48.912;8.380;2022-08-19T10:59:59;29.30;43.80
28087;DHT22;15392;48.912;8.380;2022-08-19T11:03:05;29.30;43.90
28087;DHT22;15392;48.912;8.380;2022-08-19T11:06:12;29.40;43.60
28087;DHT22;15392;48.912;8.380;2022-08-19T11:09:21;29.40;43.50
28087;DHT22;15392;48.912;8.380;2022-08-19T11:12:32;29.50;43.40
28087;DHT22;15392;48.912;8.380;2022-08-19T11:15:39;29.50;43.60
28087;DHT22;15392;48.912;8.380;2022-08-19T11:18:48;29.50;43.50
28087;DHT22;15392;48.912;8.380;2022-08-19T11:21:56;29.60;43.50
28087;DHT22;15392;48.912;8.380;2022-08-19T11:25:03;29.60;43.40
28087;DHT22;15392;48.912;8.380;2022-08-19T11:28:11;29.70;43.30
28087;DHT22;15392;48.912;8.380;2022-08-19T11:31:20;29.70;43.10
28087;DHT22;15392;48.912;8.380;2022-08-19T11:34:28;29.80;43.10
28087;DHT22;15392;48.912;8.380;2022-08-19T11:37:35;29.80;43.20
28087;DHT22;15392;48.912;8.380;2022-08-19T11:40:43;29.90;43.30
28087;DHT22;15392;48.912;8.380;2022-08-19T11:43:51;29.90;43.20
28087;DHT22;15392;48.912;8.380;2022-08-19T11:47:00;29.90;43.10
28087;DHT22;15392;48.912;8.380;2022-08-19T11:50:06;29.90;43.10
28087;DHT22;15392;48.912;8.380;2022-08-19T11:53:13;30.00;43.10
28087;DHT22;15392;48.912;8.380;2022-08-19T11:56:19;29.90;43.00
28087;DHT22;15392;48.912;8.380;2022-08-19T11:59:26;30.00;43.00
28087;DHT22;15392;48.912;8.380;2022-08-19T12:02:33;30.00;43.10
28087;DHT22;15392;48.912;8.380;2022-08-19T12:05:40;30.10;43.00
28087;DHT22;15392;48.912;8.380;2022-08-19T12:08:47;30.10;42.80
28087;DHT22;15392;48.912;8.380;2022-08-19T12:11:53;30.10;42.60
28087;DHT22;15392;48.912;8.380;2022-08-19T12:15:00;30.20;42.70
28087;DHT22;15392;48.912;8.380;2022-08-19T12:18:08;30.20;42.60
28087;DHT22;15392;48.912;8.380;2022-08-19T12:21:17;30.20;43.00
28087;DHT22;15392;48.912;8.380;2022-08-19T12:24:31;30.30;42.20
28087;DHT22;15392;48.912;8.380;2022-08-19T12:27:38;30.30;42.40
28087;DHT22;15392;48.912;8.380;2022-08-19T12:30:45;30.30;42.40
28087;DHT22;15392;48.912;8.380;2022-08-19T12:33:52;30.40;42.40
28087;DHT22;15392;48.912;8.380;2022-08-19T12:37:01;30.40;42.40
28087;DHT22;15392;48.912;8.380;2022-08-19T12:40:10;30.40;42.30
28087;DHT22;15392;48.912;8.380;2022-08-19T12:43:18;30.40;42.40
28087;DHT22;15392;48.912;8.380;2022-08-19T12:46:26;30.50;42.30
28087;DHT22;15392;48.912;8.380;2022-08-19T12:49:33;30.50;42.30
28087;DHT22;15392;48.912;8.380;2022-08-19T12:52:40;30.50;41.90
28087;DHT22;15392;48.912;8.380;2022-08-19T12:55:53;30.50;41.80
28087;DHT22;15392;48.912;8.380;2022-08-19T12:59:02;30.50;41.90
28087;DHT22;15392;48.912;8.380;2022-08-19T13:02:10;30.60;41.90
28087;DHT22;15392;48.912;8.380;2022-08-19T13:05:23;30.60;42.00
28087;DHT22;15392;48.912;8.380;2022-08-19T13:08:31;30.60;41.90
28087;DHT22;15392;48.912;8.380;2022-08-19T13:11:38;30.60;42.10
28087;DHT22;15392;48.912;8.380;2022-08-19T13:14:44;30.70;41.70
28087;DHT22;15392;48.912;8.380;2022-08-19T13:17:53;30.70;41.80
28087;DHT22;15392;48.912;8.380;2022-08-19T13:21:07;30.80;41.90
28087;DHT22;15392;48.912;8.380;2022-08-19T13:24:14;30.90;41.40
28087;DHT22;15392;48.912;8.380;2022-08-19T13:27:21;31.00;41.90
28087;DHT22;15392;48.912;8.380;2022-08-19T13:30:27;31.10;41.20
28087;DHT22;15392;48.912;8.380;2022-08-19T13:34:00;31.20;41.50
28087;DHT22;15392;48.912;8.380;2022-08-19T13:37:07;31.30;41.40
28087;DHT22;15392;48.912;8.380;2022-08-19T13:40:16;31.40;41.30
28087;DHT22;15392;48.912;8.380;2022-08-19T13:43:26;31.50;40.80
28087;DHT22;15392;48.912;8.380;2022-08-19T13:46:32;31.50;41.10
28087;DHT22;15392;48.912;8.380;2022-08-19T13:49:39;31.60;40.60
28087;DHT22;15392;48.912;8.380;2022-08-19T13:52:46;31.70;40.20
28087;DHT22;15392;48.912;8.380;2022-08-19T13:55:53;31.70;40.10
28087;DHT22;15392;48.912;8.380;2022-08-19T13:58:59;31.70;39.40
28087;DHT22;15392;48.912;8.380;2022-08-19T14:02:06;31.70;39.40
28087;DHT22;15392;48.912;8.380;2022-08-19T14:05:15;31.80;39.40
28087;DHT22;15392;48.912;8.380;2022-08-19T14:08:22;31.80;39.00
28087;DHT22;15392;48.912;8.380;2022-08-19T14:11:29;31.90;39.40
28087;DHT22;15392;48.912;8.380;2022-08-19T14:14:37;31.90;39.30
28087;DHT22;15392;48.912;8.380;2022-08-19T14:17:45;32.00;39.30
28087;DHT22;15392;48.912;8.380;2022-08-19T14:20:54;32.00;39.10
28087;DHT22;15392;48.912;8.380;2022-08-19T14:24:02;32.00;39.00
28087;DHT22;15392;48.912;8.380;2022-08-19T14:27:09;32.00;39.10
28087;DHT22;15392;48.912;8.380;2022-08-19T14:30:20;32.00;39.10
28087;DHT22;15392;48.912;8.380;2022-08-19T14:33:28;32.10;39.00
28087;DHT22;15392;48.912;8.380;2022-08-19T14:36:34;32.10;39.00
28087;DHT22;15392;48.912;8.380;2022-08-19T14:39:41;32.10;38.90
28087;DHT22;15392;48.912;8.380;2022-08-19T14:42:48;32.10;38.80
28087;DHT22;15392;48.912;8.380;2022-08-19T14:45:54;32.10;39.00
28087;DHT22;15392;48.912;8.380;2022-08-19T14:49:02;32.10;39.10
28087;DHT22;15392;48.912;8.380;2022-08-19T14:52:09;32.10;39.00
28087;DHT22;15392;48.912;8.380;2022-08-19T14:55:16;32.10;39.00
28087;DHT22;15392;48.912;8.380;2022-08-19T14:58:23;32.10;39.00
28087;DHT22;15392;48.912;8.380;2022-08-19T15:01:29;32.10;38.80
28087;DHT22;15392;48.912;8.380;2022-08-19T15:04:36;32.00;38.50
28087;DHT22;15392;48.912;8.380;2022-08-19T15:07:43;31.90;38.40
28087;DHT22;15392;48.912;8.380;2022-08-19T15:10:49;32.00;38.80
28087;DHT22;15392;48.912;8.380;2022-08-19T15:13:56;31.90;38.70
28087;DHT22;15392;48.912;8.380;2022-08-19T15:17:03;31.90;38.60
28087;DHT22;15392;48.912;8.380;2022-08-19T15:20:13;31.80;38.30
28087;DHT22;15392;48.912;8.380;2022-08-19T15:23:21;31.70;38.40
28087;DHT22;15392;48.912;8.380;2022-08-19T15:26:28;31.70;38.40
28087;DHT22;15392;48.912;8.380;2022-08-19T15:29:38;31.70;38.20
28087;DHT22;15392;48.912;8.380;2022-08-19T15:32:45;31.70;37.70
28087;DHT22;15392;48.912;8.380;2022-08-19T15:35:52;31.60;38.40
28087;DHT22;15392;48.912;8.380;2022-08-19T15:38:59;31.60;38.40
28087;DHT22;15392;48.912;8.380;2022-08-19T15:42:05;31.50;37.90
28087;DHT22;15392;48.912;8.380;2022-08-19T15:45:14;31.50;38.00
28087;DHT22;15392;48.912;8.380;2022-08-19T15:48:21;31.50;38.20
28087;DHT22;15392;48.912;8.380;2022-08-19T15:51:31;31.50;38.20
28087;DHT22;15392;48.912;8.380;2022-08-19T15:54:40;31.40;38.00
28087;DHT22;15392;48.912;8.380;2022-08-19T15:57:46;31.40;38.20
28087;DHT22;15392;48.912;8.380;2022-08-19T16:01:11;31.40;38.10
28087;DHT22;15392;48.912;8.380;2022-08-19T16:04:53;31.40;38.00
28087;DHT22;15392;48.912;8.380;2022-08-19T16:08:18;31.40;38.10
28087;DHT22;15392;48.912;8.380;2022-08-19T16:11:27;31.40;38.00
28087;DHT22;15392;48.912;8.380;2022-08-19T16:14:36;31.40;37.90
28087;DHT22;15392;48.912;8.380;2022-08-19T16:17:43;31.40;37.90
28087;DHT22;15392;48.912;8.380;2022-08-19T16:20:49;31.40;38.60
28087;DHT22;15392;48.912;8.380;2022-08-19T16:23:56;31.40;38.00
28087;DHT22;15392;48.912;8.380;2022-08-19T16:27:02;31.40;37.90
28087;DHT22;15392;48.912;8.380;2022-08-19T16:30:09;31.40;38.00
28087;DHT22;15392;48.912;8.380;2022-08-19T16:33:16;31.40;38.00
28087;DHT22;15392;48.912;8.380;2022-08-19T16:36:23;31.30;37.90
28087;DHT22;15392;48.912;8.380;2022-08-19T16:39:29;31.40;38.10
28087;DHT22;15392;48.912;8.380;2022-08-19T16:42:36;31.40;38.20
28087;DHT22;15392;48.912;8.380;2022-08-19T16:45:42;31.30;38.30
28087;DHT22;15392;48.912;8.380;2022-08-19T16:48:49;31.30;38.50
28087;DHT22;15392;48.912;8.380;2022-08-19T16:51:55;31.30;38.50
28087;DHT22;15392;48.912;8.380;2022-08-19T16:55:03;31.40;38.60
28087;DHT22;15392;48.912;8.380;2022-08-19T16:58:10;31.30;38.50
28087;DHT22;15392;48.912;8.380;2022-08-19T17:01:17;31.40;38.40
28087;DHT22;15392;48.912;8.380;2022-08-19T17:04:24;31.30;38.40
28087;DHT22;15392;48.912;8.380;2022-08-19T17:07:31;31.30;38.30
28087;DHT22;15392;48.912;8.380;2022-08-19T17:10:37;31.30;38.00
28087;DHT22;15392;48.912;8.380;2022-08-19T17:13:44;31.30;38.50
28087;DHT22;15392;48.912;8.380;2022-08-19T17:16:50;31.30;38.10
28087;DHT22;15392;48.912;8.380;2022-08-19T17:19:58;31.30;38.50
28087;DHT22;15392;48.912;8.380;2022-08-19T17:23:05;31.30;38.50
28087;DHT22;15392;48.912;8.380;2022-08-19T17:26:13;31.30;38.50
28087;DHT22;15392;48.912;8.380;2022-08-19T17:29:21;31.40;38.60
28087;DHT22;15392;48.912;8.380;2022-08-19T17:32:27;31.40;38.50
28087;DHT22;15392;48.912;8.380;2022-08-19T17:35:34;31.30;38.40
28087;DHT22;15392;48.912;8.380;2022-08-19T17:38:40;31.30;38.30
28087;DHT22;15392;48.912;8.380;2022-08-19T17:41:47;31.30;38.30
28087;DHT22;15392;48.912;8.380;2022-08-19T17:44:54;31.30;38.20
28087;DHT22;15392;48.912;8.380;2022-08-19T17:48:04;31.30;38.20
28087;DHT22;15392;48.912;8.380;2022-08-19T17:51:17;31.30;37.90
28087;DHT22;15392;48.912;8.380;2022-08-19T17:54:26;31.30;37.50
28087;DHT22;15392;48.912;8.380;2022-08-19T17:57:33;31.30;37.60
28087;DHT22;15392;48.912;8.380;2022-08-19T18:00:39;31.30;37.40
28087;DHT22;15392;48.912;8.380;2022-08-19T18:03:46;31.30;37.50
28087;DHT22;15392;48.912;8.380;2022-08-19T18:06:53;31.20;37.70
28087;DHT22;15392;48.912;8.380;2022-08-19T18:09:59;31.20;37.50
28087;DHT22;15392;48.912;8.380;2022-08-19T18:13:06;31.20;37.50